createdAt,value
2023-01-22T00:01:08.668Z,100353.94
2023-01-22T00:03:37.388Z,100342.13
2023-01-22T00:06:06.060Z,100329.41
2023-01-22T00:08:34.999Z,100328.75
2023-01-22T00:11:02.667Z,100331.22
2023-01-22T00:13:30.631Z,100340.03
2023-01-22T00:15:58.777Z,100337.03
2023-01-22T00:18:26.689Z,100329.22
2023-01-22T00:20:55.584Z,100327.22
2023-01-22T00:23:23.701Z,100329.63
2023-01-22T00:26:01.114Z,100325.34
2023-01-22T00:28:29.103Z,100323.81
2023-01-22T00:31:00.076Z,100326.94
2023-01-22T00:33:27.880Z,100321.53
2023-01-22T00:35:56.727Z,100322.50
2023-01-22T00:38:24.220Z,100316.25
2023-01-22T00:40:53.087Z,100323.22
2023-01-22T00:43:20.703Z,100325.19
2023-01-22T00:45:48.145Z,100325.53
2023-01-22T00:48:15.593Z,100325.91
2023-01-22T00:50:43.064Z,100322.34
2023-01-22T00:53:10.626Z,100321.53
2023-01-22T00:55:38.232Z,100324.91
2023-01-22T00:58:07.123Z,100326.94
2023-01-22T01:00:34.722Z,100323.22
2023-01-22T01:03:02.257Z,100326.03
2023-01-22T01:05:32.106Z,100328.06
2023-01-22T01:08:00.095Z,100326.94
2023-01-22T01:10:27.601Z,100324.34
2023-01-22T01:12:55.169Z,100328.63
2023-01-22T01:15:24.032Z,100336.50
2023-01-22T01:17:51.428Z,100331.44
2023-01-22T01:20:19.366Z,100334.72
2023-01-22T01:22:47.381Z,100334.03
2023-01-22T01:25:14.962Z,100328.06
2023-01-22T01:27:42.626Z,100329.63
2023-01-22T01:30:11.431Z,100327.59
2023-01-22T01:32:40.338Z,100330.47
2023-01-22T01:35:09.295Z,100332.63
2023-01-22T01:37:38.425Z,100337.41
2023-01-22T01:40:07.480Z,100331.31
2023-01-22T01:42:39.120Z,100336.94
2023-01-22T01:45:25.533Z,100326.44
2023-01-22T01:48:02.005Z,100326.94
2023-01-22T01:50:29.688Z,100328.28
2023-01-22T01:53:00.606Z,100323.22
2023-01-22T01:55:31.018Z,100338.28
2023-01-22T01:58:02.787Z,100330.59
2023-01-22T02:00:35.237Z,100332.00
2023-01-22T02:03:05.079Z,100326.50
2023-01-22T02:05:38.171Z,100322.88
2023-01-22T02:08:09.417Z,100324.91
2023-01-22T02:10:37.990Z,100321.38
2023-01-22T02:13:10.373Z,100318.81
2023-01-22T02:15:39.415Z,100309.00
2023-01-22T02:18:08.420Z,100320.50
2023-01-22T02:20:38.864Z,100315.22
2023-01-22T02:23:08.595Z,100311.69
2023-01-22T02:25:36.223Z,100314.41
2023-01-22T02:28:03.877Z,100307.13
2023-01-22T02:30:31.385Z,100299.75
2023-01-22T02:33:01.575Z,100306.13
2023-01-22T02:35:29.017Z,100308.00
2023-01-22T02:37:58.019Z,100302.28
2023-01-22T02:40:25.936Z,100309.00
2023-01-22T02:42:54.361Z,100300.59
2023-01-22T02:45:22.155Z,100294.50
2023-01-22T02:47:50.092Z,100295.47
2023-01-22T02:50:18.545Z,100300.50
2023-01-22T02:52:46.347Z,100297.06
2023-01-22T02:55:15.411Z,100297.31
2023-01-22T02:57:43.090Z,100299.91
2023-01-22T03:00:12.156Z,100297.25
2023-01-22T03:02:40.967Z,100302.38
2023-01-22T03:05:09.301Z,100299.19
2023-01-22T03:07:37.332Z,100301.03
2023-01-22T03:10:06.310Z,100297.50
2023-01-22T03:12:35.486Z,100293.25
2023-01-22T03:15:03.637Z,100297.66
2023-01-22T03:17:31.272Z,100301.44
2023-01-22T03:20:00.109Z,100297.19
2023-01-22T03:22:27.834Z,100293.66
2023-01-22T03:24:57.828Z,100289.34
2023-01-22T03:27:27.196Z,100286.16
2023-01-22T03:29:56.903Z,100291.38
2023-01-22T03:32:24.964Z,100291.38
2023-01-22T03:34:52.708Z,100285.97
2023-01-22T03:37:21.584Z,100275.50
2023-01-22T03:39:52.121Z,100287.16
2023-01-22T03:42:26.653Z,100292.94
2023-01-22T03:44:54.150Z,100282.28
2023-01-22T03:47:23.155Z,100288.38
2023-01-22T03:49:50.862Z,100286.50
2023-01-22T03:52:18.608Z,100286.50
2023-01-22T03:54:46.913Z,100281.44
2023-01-22T03:57:14.823Z,100276.19
2023-01-22T03:59:43.259Z,100282.13
2023-01-22T04:02:10.805Z,100277.56
2023-01-22T04:04:51.494Z,100282.28
2023-01-22T04:07:19.107Z,100270.63
2023-01-22T04:09:47.878Z,100275.03
2023-01-22T04:12:15.667Z,100270.47
2023-01-22T04:14:44.171Z,100264.22
2023-01-22T04:17:12.060Z,100258.59
2023-01-22T04:20:04.382Z,100269.47
2023-01-22T04:22:58.092Z,100260.69
2023-01-22T04:25:25.744Z,100259.66
2023-01-22T04:27:53.287Z,100252.56
2023-01-22T04:30:20.953Z,100246.47
2023-01-22T04:32:53.846Z,100247.31
2023-01-22T04:35:40.726Z,100246.97
2023-01-22T04:38:09.833Z,100244.97
2023-01-22T04:40:37.356Z,100240.56
2023-01-22T04:43:07.117Z,100238.19
2023-01-22T04:45:34.661Z,100245.28
2023-01-22T04:48:02.698Z,100242.25
2023-01-22T04:50:32.816Z,100238.84
2023-01-22T04:53:02.142Z,100240.75
2023-01-22T04:55:30.907Z,100237.03
2023-01-22T04:58:03.184Z,100233.66
2023-01-22T05:00:31.211Z,100234.50
2023-01-22T05:03:03.911Z,100228.75
2023-01-22T05:05:33.243Z,100238.72
2023-01-22T05:08:02.759Z,100231.63
2023-01-22T05:10:31.622Z,100229.94
2023-01-22T05:13:02.966Z,100236.03
2023-01-22T05:15:31.615Z,100227.38
2023-01-22T05:18:05.112Z,100237.19
2023-01-22T05:20:35.867Z,100232.78
2023-01-22T05:23:04.819Z,100231.63
2023-01-22T05:25:32.799Z,100237.03
2023-01-22T05:28:00.591Z,100243.16
2023-01-22T05:30:37.997Z,100247.66
2023-01-22T05:33:24.306Z,100238.72
2023-01-22T05:35:56.984Z,100238.88
2023-01-22T05:38:26.763Z,100234.34
2023-01-22T05:40:54.375Z,100219.97
2023-01-22T05:43:23.232Z,100227.06
2023-01-22T05:46:01.056Z,100233.31
2023-01-22T05:49:00.903Z,100230.63
2023-01-22T05:51:32.508Z,100226.53
2023-01-22T05:54:02.060Z,100227.91
2023-01-22T05:56:32.385Z,100230.09
2023-01-22T05:59:00.014Z,100226.22
2023-01-22T06:01:27.719Z,100234.16
2023-01-22T06:03:58.308Z,100227.06
2023-01-22T06:06:26.683Z,100241.28
2023-01-22T06:08:56.260Z,100241.81
2023-01-22T06:11:28.087Z,100249.09
2023-01-22T06:13:56.077Z,100249.25
2023-01-22T06:16:24.079Z,100247.53
2023-01-22T06:19:10.736Z,100245.53
2023-01-22T06:21:45.609Z,100245.72
2023-01-22T06:24:13.845Z,100245.72
2023-01-22T06:26:43.123Z,100253.06
2023-01-22T06:29:13.929Z,100243.97
2023-01-22T06:31:42.891Z,100243.28
2023-01-22T06:34:15.567Z,100242.44
2023-01-22T06:36:44.055Z,100238.72
2023-01-22T06:39:12.388Z,100242.25
2023-01-22T06:41:47.824Z,100237.75
2023-01-22T06:44:17.637Z,100227.06
2023-01-22T06:46:46.244Z,100235.34
2023-01-22T06:49:21.471Z,100238.06
2023-01-22T06:51:50.280Z,100243.00
2023-01-22T06:54:19.316Z,100240.44
2023-01-22T06:56:48.562Z,100239.44
2023-01-22T06:59:18.546Z,100240.56
2023-01-22T07:01:46.598Z,100240.44
2023-01-22T07:04:14.575Z,100241.44
2023-01-22T07:06:42.914Z,100231.34
2023-01-22T07:09:10.456Z,100224.75
2023-01-22T07:11:39.287Z,100227.78
2023-01-22T07:14:09.339Z,100220.53
2023-01-22T07:16:36.808Z,100226.78
2023-01-22T07:19:05.113Z,100221.19
2023-01-22T07:21:32.657Z,100219.50
2023-01-22T07:24:01.143Z,100222.22
2023-01-22T07:26:29.117Z,100215.13
2023-01-22T07:28:56.777Z,100212.94
2023-01-22T07:31:25.794Z,100213.78
2023-01-22T07:33:53.291Z,100211.06
2023-01-22T07:36:20.796Z,100202.28
2023-01-22T07:38:48.247Z,100202.06
2023-01-22T07:41:25.417Z,100202.13
2023-01-22T07:43:54.708Z,100197.06
2023-01-22T07:46:22.881Z,100198.56
2023-01-22T07:48:52.052Z,100197.88
2023-01-22T07:51:21.108Z,100192.34
2023-01-22T07:53:48.996Z,100191.31
2023-01-22T07:56:17.088Z,100191.81
2023-01-22T07:58:44.691Z,100189.78
2023-01-22T08:01:12.870Z,100181.53
2023-01-22T08:03:41.358Z,100181.81
2023-01-22T08:06:12.766Z,100179.97
2023-01-22T08:08:41.175Z,100169.84
2023-01-22T08:11:09.424Z,100175.94
2023-01-22T08:13:37.407Z,100172.56
2023-01-22T08:16:06.938Z,100170.88
2023-01-22T08:18:35.031Z,100168.31
2023-01-22T08:21:04.164Z,100163.78
2023-01-22T08:23:33.588Z,100164.44
2023-01-22T08:26:02.312Z,100162.91
2023-01-22T08:28:31.594Z,100164.78
2023-01-22T08:31:00.414Z,100167.34
2023-01-22T08:33:31.940Z,100159.38
2023-01-22T08:36:00.125Z,100163.88
2023-01-22T08:38:27.928Z,100158.66
2023-01-22T08:40:57.497Z,100157.50
2023-01-22T08:43:25.280Z,100147.84
2023-01-22T08:45:53.266Z,100144.97
2023-01-22T08:48:22.096Z,100149.69
2023-01-22T08:50:50.717Z,100139.56
2023-01-22T08:53:18.540Z,100136.03
2023-01-22T08:55:50.176Z,100135.72
2023-01-22T08:58:19.235Z,100130.63
2023-01-22T09:00:46.932Z,100129.66
2023-01-22T09:03:14.397Z,100132.34
2023-01-22T09:05:42.869Z,100119.16
2023-01-22T09:08:11.175Z,100121.22
2023-01-22T09:10:38.914Z,100125.22
2023-01-22T09:13:07.086Z,100118.97
2023-01-22T09:15:37.134Z,100107.31
2023-01-22T09:18:05.842Z,100118.13
2023-01-22T09:20:34.326Z,100115.25
2023-01-22T09:23:02.223Z,100116.44
2023-01-22T09:25:29.791Z,100113.44
2023-01-22T09:27:58.808Z,100115.25
2023-01-22T09:30:27.397Z,100125.22
2023-01-22T09:32:56.795Z,100116.59
2023-01-22T09:35:24.953Z,100110.72
2023-01-22T09:37:53.414Z,100105.44
2023-01-22T09:40:26.699Z,100107.03
2023-01-22T09:43:02.731Z,100101.06
2023-01-22T09:45:30.886Z,100109.16
2023-01-22T09:48:02.682Z,100106.00
2023-01-22T09:50:33.456Z,100107.13
2023-01-22T09:53:05.178Z,100112.41
2023-01-22T09:55:39.761Z,100107.03
2023-01-22T09:58:14.960Z,100099.59
2023-01-22T10:00:48.051Z,100097.06
2023-01-22T10:03:22.935Z,100106.16
2023-01-22T10:05:56.231Z,100097.91
2023-01-22T10:08:27.032Z,100092.34
2023-01-22T10:10:55.456Z,100096.72
2023-01-22T10:13:24.696Z,100095.88
2023-01-22T10:15:53.874Z,100093.16
2023-01-22T10:18:29.638Z,100095.03
2023-01-22T10:21:01.213Z,100093.00
2023-01-22T10:23:32.630Z,100085.41
2023-01-22T10:26:04.713Z,100092.50
2023-01-22T10:28:35.419Z,100091.31
2023-01-22T10:31:03.579Z,100088.63
2023-01-22T10:33:38.043Z,100095.34
2023-01-22T10:36:05.952Z,100106.69
2023-01-22T10:38:34.583Z,100108.38
2023-01-22T10:41:04.391Z,100100.25
2023-01-22T10:43:32.778Z,100105.50
2023-01-22T10:46:06.709Z,100112.78
2023-01-22T10:48:36.829Z,100116.16
2023-01-22T10:51:14.455Z,100129.00
2023-01-22T10:53:48.244Z,100120.56
2023-01-22T10:56:27.990Z,100116.31
2023-01-22T10:58:56.218Z,100110.41
2023-01-22T11:01:34.720Z,100118.88
2023-01-22T11:04:14.277Z,100106.69
2023-01-22T11:06:47.263Z,100103.31
2023-01-22T11:09:19.434Z,100092.84
2023-01-22T11:11:52.379Z,100085.75
2023-01-22T11:14:26.772Z,100090.97
2023-01-22T11:16:59.268Z,100095.38
2023-01-22T11:19:41.106Z,100104.34
2023-01-22T11:22:23.155Z,100088.63
2023-01-22T11:24:52.224Z,100087.75
2023-01-22T11:27:55.507Z,100090.16
2023-01-22T11:31:07.943Z,100089.97
2023-01-22T11:34:07.176Z,100084.41
2023-01-22T11:36:40.516Z,100075.78
2023-01-22T11:39:16.757Z,100065.66
2023-01-22T11:42:00.157Z,100068.19
2023-01-22T11:44:46.003Z,100066.66
2023-01-22T11:47:29.123Z,100068.34
2023-01-22T11:50:08.944Z,100072.06
2023-01-22T11:52:47.890Z,100089.97
2023-01-22T11:55:28.965Z,100092.16
2023-01-22T11:58:08.389Z,100103.47
2023-01-22T12:00:47.017Z,100112.13
2023-01-22T12:03:26.907Z,100111.78
2023-01-22T12:06:04.647Z,100105.34
2023-01-22T12:08:44.899Z,100101.78
2023-01-22T12:11:29.309Z,100104.50
2023-01-22T12:14:40.912Z,100090.16
2023-01-22T12:17:22.563Z,100091.16
2023-01-22T12:20:16.169Z,100090.97
2023-01-22T12:22:50.644Z,100076.66
2023-01-22T12:25:29.855Z,100085.75
2023-01-22T12:28:03.011Z,100081.72
2023-01-22T12:30:40.343Z,100074.63
2023-01-22T12:33:12.654Z,100079.16
2023-01-22T12:35:41.941Z,100080.34
2023-01-22T12:38:31.171Z,100074.25
2023-01-22T12:41:22.118Z,100078.16
2023-01-22T12:43:52.930Z,100078.63
2023-01-22T12:46:30.273Z,100075.78
2023-01-22T12:49:05.267Z,100067.53
2023-01-22T12:51:39.782Z,100066.50
2023-01-22T12:54:19.934Z,100060.44
2023-01-22T12:56:50.067Z,100058.75
2023-01-22T12:59:43.595Z,100051.97
2023-01-22T13:02:35.015Z,100049.44
2023-01-22T13:05:18.566Z,100050.28
2023-01-22T13:07:48.146Z,100055.03
2023-01-22T13:10:27.968Z,100042.53
2023-01-22T13:13:00.195Z,100030.84
2023-01-22T13:15:30.697Z,100019.88
2023-01-22T13:18:06.882Z,100017.34
2023-01-22T13:20:37.174Z,100013.63
2023-01-22T13:23:06.712Z,100014.47
2023-01-22T13:25:33.989Z,100019.53
2023-01-22T13:28:02.937Z,100015.31
2023-01-22T13:30:30.864Z,100017.84
2023-01-22T13:33:06.520Z,100010.75
2023-01-22T13:35:36.377Z,100009.91
2023-01-22T13:38:03.994Z,100002.00
2023-01-22T13:40:42.781Z,100016.16
2023-01-22T13:43:21.478Z,100006.19
2023-01-22T13:45:49.579Z,100008.22
2023-01-22T13:48:19.035Z,100016.16
2023-01-22T13:50:49.352Z,100031.53
2023-01-22T13:53:25.248Z,100022.75
2023-01-22T13:55:53.119Z,100024.44
2023-01-22T13:58:52.749Z,100035.09
2023-01-22T14:01:30.208Z,100050.28
2023-01-22T14:04:02.198Z,100047.59
2023-01-22T14:06:30.360Z,100041.16
2023-01-22T14:08:58.729Z,100048.59
2023-01-22T14:11:36.833Z,100057.38
2023-01-22T14:14:15.928Z,100045.91
2023-01-22T14:16:43.795Z,100047.59
2023-01-22T14:19:11.451Z,100054.84
2023-01-22T14:21:38.994Z,100058.41
2023-01-22T14:24:07.575Z,100053.00
2023-01-22T14:26:35.323Z,100037.44
2023-01-22T14:29:03.136Z,100027.81
2023-01-22T14:31:32.251Z,100024.44
2023-01-22T14:33:59.976Z,100029.50
2023-01-22T14:36:27.425Z,100025.59
2023-01-22T14:38:55.346Z,100024.94
2023-01-22T14:41:22.891Z,100021.06
2023-01-22T14:43:50.819Z,100020.91
2023-01-22T14:46:18.239Z,100011.78
2023-01-22T14:48:47.588Z,100002.81
2023-01-22T14:51:15.272Z,100007.38
2023-01-22T14:53:42.983Z,100020.03
2023-01-22T14:56:10.496Z,100028.28
2023-01-22T14:58:38.455Z,100037.63
2023-01-22T15:01:15.662Z,100035.34
2023-01-22T15:03:43.201Z,100042.47
2023-01-22T15:06:12.199Z,100047.56
2023-01-22T15:08:40.092Z,100039.13
2023-01-22T15:11:08.372Z,100039.09
2023-01-22T15:13:37.307Z,100049.66
2023-01-22T15:16:05.766Z,100052.88
2023-01-22T15:18:33.803Z,100050.88
2023-01-22T15:21:02.113Z,100052.91
2023-01-22T15:23:31.470Z,100057.31
2023-01-22T15:26:01.307Z,100050.56
2023-01-22T15:28:29.892Z,100035.06
2023-01-22T15:31:01.204Z,100028.28
2023-01-22T15:33:29.578Z,100031.66
2023-01-22T15:35:57.539Z,100051.59
2023-01-22T15:38:25.163Z,100064.63
2023-01-22T15:41:05.027Z,100066.59
2023-01-22T15:43:34.143Z,100070.19
2023-01-22T15:46:02.027Z,100081.31
2023-01-22T15:48:29.971Z,100073.56
2023-01-22T15:51:07.781Z,100072.91
2023-01-22T15:53:35.979Z,100073.56
2023-01-22T15:56:07.002Z,100067.16
2023-01-22T15:58:34.732Z,100085.41
2023-01-22T16:01:03.262Z,100081.69
2023-01-22T16:03:30.851Z,100083.72
2023-01-22T16:06:08.479Z,100086.41
2023-01-22T16:08:36.388Z,100093.50
2023-01-22T16:11:06.792Z,100096.22
2023-01-22T16:13:34.572Z,100095.19
2023-01-22T16:16:04.907Z,100091.47
2023-01-22T16:18:34.148Z,100095.19
2023-01-22T16:21:01.963Z,100106.16
2023-01-22T16:23:31.018Z,100099.94
2023-01-22T16:25:59.642Z,100109.00
2023-01-22T16:28:29.423Z,100125.94
2023-01-22T16:31:01.990Z,100127.47
2023-01-22T16:33:32.654Z,100115.13
2023-01-22T16:36:01.077Z,100108.03
2023-01-22T16:38:29.091Z,100118.69
2023-01-22T16:41:07.924Z,100118.97
2023-01-22T16:43:37.119Z,100116.97
2023-01-22T16:46:05.048Z,100117.81
2023-01-22T16:48:32.791Z,100110.41
2023-01-22T16:51:00.604Z,100094.53
2023-01-22T16:53:28.186Z,100092.50
2023-01-22T16:55:55.962Z,100082.81
2023-01-22T16:58:24.872Z,100084.53
2023-01-22T17:00:54.919Z,100094.38
2023-01-22T17:03:22.988Z,100096.22
2023-01-22T17:05:51.028Z,100103.31
2023-01-22T17:08:18.984Z,100099.03
2023-01-22T17:10:47.010Z,100094.53
2023-01-22T17:13:15.099Z,100090.09
2023-01-22T17:15:43.580Z,100094.53
2023-01-22T17:18:12.828Z,100088.22
2023-01-22T17:20:41.208Z,100091.66
2023-01-22T17:23:11.500Z,100103.31
2023-01-22T17:25:41.039Z,100102.13
2023-01-22T17:28:08.491Z,100094.81
2023-01-22T17:30:38.516Z,100107.13
2023-01-22T17:33:06.358Z,100097.34
2023-01-22T17:35:35.631Z,100099.59
2023-01-22T17:38:04.088Z,100098.34
2023-01-22T17:40:33.123Z,100105.63
2023-01-22T17:43:00.885Z,100104.78
2023-01-22T17:45:28.883Z,100099.38
2023-01-22T17:47:57.629Z,100106.16
2023-01-22T17:50:26.263Z,100101.91
2023-01-22T17:52:56.027Z,100118.44
2023-01-22T17:55:24.218Z,100119.53
2023-01-22T17:57:55.612Z,100114.13
2023-01-22T18:00:23.820Z,100118.44
2023-01-22T18:02:51.456Z,100110.53
2023-01-22T18:05:19.585Z,100106.31
2023-01-22T18:07:47.695Z,100104.63
2023-01-22T18:10:18.018Z,100106.16
2023-01-22T18:12:46.835Z,100109.16
2023-01-22T18:15:14.649Z,100103.59
2023-01-22T18:17:42.775Z,100095.84
2023-01-22T18:20:11.615Z,100089.44
2023-01-22T18:22:39.549Z,100079.63
2023-01-22T18:25:08.208Z,100074.72
2023-01-22T18:27:38.166Z,100090.81
2023-01-22T18:30:07.354Z,100076.59
2023-01-22T18:32:35.743Z,100066.78
2023-01-22T18:35:04.129Z,100068.63
2023-01-22T18:37:31.986Z,100065.09
2023-01-22T18:39:59.936Z,100070.50
2023-01-22T18:42:27.977Z,100072.34
2023-01-22T18:44:57.593Z,100070.19
2023-01-22T18:47:25.631Z,100078.63
2023-01-22T18:49:53.595Z,100087.41
2023-01-22T18:52:21.175Z,100091.41
2023-01-22T18:54:48.763Z,100103.25
2023-01-22T18:57:16.253Z,100095.66
2023-01-22T18:59:43.753Z,100099.94
2023-01-22T19:02:12.802Z,100110.72
2023-01-22T19:04:40.275Z,100113.03
2023-01-22T19:07:07.893Z,100109.84
2023-01-22T19:09:35.537Z,100118.84
2023-01-22T19:12:03.178Z,100109.00
2023-01-22T19:14:31.115Z,100102.75
2023-01-22T19:16:58.976Z,100104.44
2023-01-22T19:19:27.831Z,100103.59
2023-01-22T19:21:55.946Z,100098.53
2023-01-22T19:24:23.563Z,100105.44
2023-01-22T19:26:51.538Z,100114.41
2023-01-22T19:29:19.299Z,100114.75
2023-01-22T19:31:49.061Z,100107.31
2023-01-22T19:34:17.597Z,100121.84
2023-01-22T19:36:46.600Z,100109.00
2023-01-22T19:39:14.081Z,100111.72
2023-01-22T19:41:42.497Z,100111.72
2023-01-22T19:44:11.792Z,100118.13
2023-01-22T19:46:39.757Z,100111.41
2023-01-22T19:49:08.330Z,100112.41
2023-01-22T19:51:36.071Z,100106.31
2023-01-22T19:54:05.802Z,100096.53
2023-01-22T19:56:35.937Z,100099.94
2023-01-22T19:59:05.876Z,100087.41
2023-01-22T20:01:34.216Z,100087.41
2023-01-22T20:04:02.397Z,100081.84
2023-01-22T20:06:30.306Z,100082.81
2023-01-22T20:08:57.807Z,100076.72
2023-01-22T20:11:26.763Z,100077.75
2023-01-22T20:13:54.368Z,100078.94
2023-01-22T20:16:23.539Z,100079.63
2023-01-22T20:18:52.052Z,100078.78
2023-01-22T20:21:21.554Z,100081.47
2023-01-22T20:23:50.285Z,100093.13
2023-01-22T20:26:19.322Z,100082.00
2023-01-22T20:28:48.879Z,100086.00
2023-01-22T20:31:19.350Z,100095.13
2023-01-22T20:33:46.937Z,100105.63
2023-01-22T20:36:14.600Z,100114.75
2023-01-22T20:38:42.770Z,100109.34
2023-01-22T20:41:10.363Z,100110.34
2023-01-22T20:43:38.850Z,100106.66
2023-01-22T20:46:12.081Z,100114.91
2023-01-22T20:48:40.283Z,100099.72
2023-01-22T20:51:12.587Z,100091.41
2023-01-22T20:53:41.765Z,100096.81
2023-01-22T20:56:13.154Z,100093.13
2023-01-22T20:58:40.911Z,100094.47
2023-01-22T21:01:11.908Z,100079.94
2023-01-22T21:03:39.469Z,100078.94
2023-01-22T21:06:08.887Z,100083.81
2023-01-22T21:08:36.597Z,100072.84
2023-01-22T21:11:06.476Z,100078.25
2023-01-22T21:13:34.460Z,100078.09
2023-01-22T21:16:07.638Z,100083.50
2023-01-22T21:18:37.040Z,100086.34
2023-01-22T21:21:05.147Z,100089.06
2023-01-22T21:23:32.668Z,100072.16
2023-01-22T21:26:04.599Z,100069.13
2023-01-22T21:28:32.740Z,100068.47
2023-01-22T21:31:06.175Z,100071.16
2023-01-22T21:33:34.245Z,100068.47
2023-01-22T21:36:04.901Z,100073.16
2023-01-22T21:38:32.674Z,100075.38
2023-01-22T21:41:04.958Z,100067.94
2023-01-22T21:43:32.526Z,100073.69
2023-01-22T21:46:00.889Z,100080.63
2023-01-22T21:48:28.674Z,100082.31
2023-01-22T21:50:56.660Z,100097.50
2023-01-22T21:53:25.794Z,100094.81
2023-01-22T21:55:53.920Z,100095.81
2023-01-22T21:58:21.801Z,100083.31
2023-01-22T22:00:49.451Z,100085.84
2023-01-22T22:03:17.475Z,100074.69
2023-01-22T22:05:55.770Z,100077.06
2023-01-22T22:08:23.327Z,100087.34
2023-01-22T22:10:52.742Z,100078.91
2023-01-22T22:13:20.204Z,100086.31
2023-01-22T22:15:47.761Z,100100.03
2023-01-22T22:18:15.457Z,100100.03
2023-01-22T22:20:42.925Z,100103.56
2023-01-22T22:23:10.471Z,100097.47
2023-01-22T22:25:38.007Z,100097.63
2023-01-22T22:28:07.134Z,100094.78
2023-01-22T22:30:35.004Z,100093.91
2023-01-22T22:33:02.587Z,100095.78
2023-01-22T22:35:30.875Z,100099.31
2023-01-22T22:37:58.917Z,100093.56
2023-01-22T22:40:26.551Z,100089.69
2023-01-22T22:42:54.460Z,100087.31
2023-01-22T22:45:24.119Z,100082.56
2023-01-22T22:47:51.251Z,100070.94
2023-01-22T22:50:19.986Z,100073.50
2023-01-22T22:52:47.686Z,100082.91
2023-01-22T22:55:15.228Z,100077.50
2023-01-22T22:57:43.396Z,100070.09
2023-01-22T23:00:12.729Z,100081.91
2023-01-22T23:02:41.943Z,100076.84
2023-01-22T23:05:10.007Z,100082.25
2023-01-22T23:07:37.527Z,100079.53
2023-01-22T23:10:05.937Z,100081.22
2023-01-22T23:12:33.505Z,100071.28
2023-01-22T23:15:01.027Z,100075.97
2023-01-22T23:17:28.787Z,100078.53
2023-01-22T23:19:57.830Z,100075.81
2023-01-22T23:22:25.353Z,100068.72
2023-01-22T23:24:53.032Z,100065.69
2023-01-22T23:27:20.618Z,100068.72
2023-01-22T23:29:48.143Z,100061.16
2023-01-22T23:32:15.699Z,100058.56
2023-01-22T23:34:43.223Z,100040.03
2023-01-22T23:37:12.275Z,100045.09
2023-01-22T23:39:39.693Z,100049.66
2023-01-22T23:42:07.991Z,100048.66
2023-01-22T23:44:35.499Z,100049.50
2023-01-22T23:47:03.013Z,100046.44
2023-01-22T23:49:30.541Z,100042.25
2023-01-22T23:51:58.059Z,100058.44
2023-01-22T23:54:27.100Z,100055.91
2023-01-22T23:56:55.863Z,100063.34
2023-01-22T23:59:23.481Z,100062.31
